Forest City, Illinois
Current Conditions -  °F | °C
As of 3:40 PM on Wednesday 26 Nov 2014 (Local Time) from KPIA Reporting Station
Light Snow Light Snow  
Wind Chill: 22°   Ceiling: 4900
Heat Index: 31°   Visibility: 2.5mi
Dew Point: 25°   Wind: 12mph
Humidity: 79%   Direction: 90°E
Pressure: 30.06"   Gusts: NA
Location:  40.37°N, 89.83°W
Report Text: KPIA 262140Z 09010KT 2 1/2SM -SN SCT011 BKN049 OVC065 M01/M04 A3006 RMK AO2 P0000 T10061039
Loading
Personal Weather Stations






























Interactive Weather Map New forecast layout! Learn more

10-Day Weather Forecast

Advertisements
Track Severe Weather on mobile